sensor_id;sensor_type;location;lat;lon;timestamp;P1;durP1;ratioP1;P2;durP2;ratioP2
14251;SDS011;7210;51.502;10.722;2022-09-04T00:01:18;4.33;;;2.50;;
14251;SDS011;7210;51.502;10.722;2022-09-04T00:04:10;3.67;;;2.93;;
14251;SDS011;7210;51.502;10.722;2022-09-04T00:06:53;3.00;;;2.70;;
14251;SDS011;7210;51.502;10.722;2022-09-04T00:09:35;3.60;;;2.77;;
14251;SDS011;7210;51.502;10.722;2022-09-04T00:12:22;5.30;;;3.13;;
14251;SDS011;7210;51.502;10.722;2022-09-04T00:15:00;4.90;;;3.10;;
14251;SDS011;7210;51.502;10.722;2022-09-04T00:17:38;4.53;;;2.90;;
14251;SDS011;7210;51.502;10.722;2022-09-04T00:20:20;5.33;;;2.70;;
14251;SDS011;7210;51.502;10.722;2022-09-04T00:22:59;3.67;;;2.73;;
14251;SDS011;7210;51.502;10.722;2022-09-04T00:25:39;6.67;;;2.73;;
14251;SDS011;7210;51.502;10.722;2022-09-04T00:28:23;5.43;;;3.00;;
14251;SDS011;7210;51.502;10.722;2022-09-04T00:31:02;3.70;;;2.80;;
14251;SDS011;7210;51.502;10.722;2022-09-04T00:33:42;2.93;;;2.43;;
14251;SDS011;7210;51.502;10.722;2022-09-04T00:36:20;3.93;;;2.80;;
14251;SDS011;7210;51.502;10.722;2022-09-04T00:38:54;3.37;;;2.83;;
14251;SDS011;7210;51.502;10.722;2022-09-04T00:41:27;3.57;;;2.83;;
14251;SDS011;7210;51.502;10.722;2022-09-04T00:44:05;4.53;;;2.80;;
14251;SDS011;7210;51.502;10.722;2022-09-04T00:47:03;5.20;;;2.73;;
14251;SDS011;7210;51.502;10.722;2022-09-04T00:50:15;6.30;;;2.80;;
14251;SDS011;7210;51.502;10.722;2022-09-04T00:53:04;3.37;;;2.43;;
14251;SDS011;7210;51.502;10.722;2022-09-04T00:55:55;5.03;;;2.70;;
14251;SDS011;7210;51.502;10.722;2022-09-04T00:58:49;3.47;;;2.60;;
14251;SDS011;7210;51.502;10.722;2022-09-04T01:01:31;3.87;;;2.50;;
14251;SDS011;7210;51.502;10.722;2022-09-04T01:04:12;3.20;;;2.80;;
14251;SDS011;7210;51.502;10.722;2022-09-04T01:07:15;8.77;;;3.47;;
14251;SDS011;7210;51.502;10.722;2022-09-04T01:12:58;4.33;;;3.00;;
14251;SDS011;7210;51.502;10.722;2022-09-04T01:15:36;3.73;;;2.87;;
14251;SDS011;7210;51.502;10.722;2022-09-04T01:18:12;4.17;;;2.80;;
14251;SDS011;7210;51.502;10.722;2022-09-04T01:21:03;3.20;;;2.70;;
14251;SDS011;7210;51.502;10.722;2022-09-04T01:24:07;3.87;;;3.00;;
14251;SDS011;7210;51.502;10.722;2022-09-04T01:27:11;5.90;;;2.97;;
14251;SDS011;7210;51.502;10.722;2022-09-04T01:30:00;4.20;;;3.10;;
14251;SDS011;7210;51.502;10.722;2022-09-04T01:32:37;7.17;;;2.93;;
14251;SDS011;7210;51.502;10.722;2022-09-04T01:35:20;3.63;;;2.70;;
14251;SDS011;7210;51.502;10.722;2022-09-04T01:38:01;4.77;;;2.87;;
14251;SDS011;7210;51.502;10.722;2022-09-04T01:40:38;4.03;;;2.77;;
14251;SDS011;7210;51.502;10.722;2022-09-04T01:43:14;2.97;;;2.57;;
14251;SDS011;7210;51.502;10.722;2022-09-04T01:45:58;3.00;;;2.73;;
14251;SDS011;7210;51.502;10.722;2022-09-04T01:48:52;5.00;;;2.97;;
14251;SDS011;7210;51.502;10.722;2022-09-04T01:51:36;2.97;;;2.53;;
14251;SDS011;7210;51.502;10.722;2022-09-04T01:54:19;5.97;;;2.80;;
14251;SDS011;7210;51.502;10.722;2022-09-04T01:57:01;4.90;;;2.77;;
14251;SDS011;7210;51.502;10.722;2022-09-04T01:59:45;4.23;;;3.10;;
14251;SDS011;7210;51.502;10.722;2022-09-04T02:02:38;3.33;;;2.40;;
14251;SDS011;7210;51.502;10.722;2022-09-04T02:05:20;3.00;;;2.33;;
14251;SDS011;7210;51.502;10.722;2022-09-04T02:08:10;4.17;;;2.50;;
14251;SDS011;7210;51.502;10.722;2022-09-04T02:10:56;3.50;;;2.77;;
14251;SDS011;7210;51.502;10.722;2022-09-04T02:13:34;3.60;;;2.57;;
14251;SDS011;7210;51.502;10.722;2022-09-04T02:16:24;4.50;;;3.20;;
14251;SDS011;7210;51.502;10.722;2022-09-04T02:19:03;5.23;;;3.10;;
14251;SDS011;7210;51.502;10.722;2022-09-04T02:21:42;4.70;;;2.83;;
14251;SDS011;7210;51.502;10.722;2022-09-04T02:24:22;5.20;;;2.47;;
14251;SDS011;7210;51.502;10.722;2022-09-04T02:27:02;3.40;;;2.70;;
14251;SDS011;7210;51.502;10.722;2022-09-04T02:29:37;3.20;;;2.90;;
14251;SDS011;7210;51.502;10.722;2022-09-04T02:32:16;3.53;;;2.90;;
14251;SDS011;7210;51.502;10.722;2022-09-04T02:34:53;4.93;;;2.80;;
14251;SDS011;7210;51.502;10.722;2022-09-04T02:37:31;3.93;;;2.80;;
14251;SDS011;7210;51.502;10.722;2022-09-04T02:40:15;3.53;;;2.80;;
14251;SDS011;7210;51.502;10.722;2022-09-04T02:43:03;3.50;;;2.63;;
14251;SDS011;7210;51.502;10.722;2022-09-04T02:45:49;4.77;;;2.60;;
14251;SDS011;7210;51.502;10.722;2022-09-04T02:48:30;4.57;;;2.93;;
14251;SDS011;7210;51.502;10.722;2022-09-04T02:51:19;5.03;;;2.73;;
14251;SDS011;7210;51.502;10.722;2022-09-04T02:54:16;4.20;;;3.10;;
14251;SDS011;7210;51.502;10.722;2022-09-04T02:57:12;3.60;;;2.70;;
14251;SDS011;7210;51.502;10.722;2022-09-04T02:59:59;3.10;;;2.70;;
14251;SDS011;7210;51.502;10.722;2022-09-04T03:02:34;4.60;;;2.70;;
14251;SDS011;7210;51.502;10.722;2022-09-04T03:05:13;5.40;;;2.97;;
14251;SDS011;7210;51.502;10.722;2022-09-04T03:07:50;5.83;;;3.33;;
14251;SDS011;7210;51.502;10.722;2022-09-04T03:10:27;4.10;;;2.77;;
14251;SDS011;7210;51.502;10.722;2022-09-04T03:13:00;3.33;;;2.73;;
14251;SDS011;7210;51.502;10.722;2022-09-04T03:15:40;4.30;;;2.70;;
14251;SDS011;7210;51.502;10.722;2022-09-04T03:18:19;6.47;;;2.97;;
14251;SDS011;7210;51.502;10.722;2022-09-04T03:20:55;4.60;;;2.87;;
14251;SDS011;7210;51.502;10.722;2022-09-04T03:23:31;3.27;;;2.80;;
14251;SDS011;7210;51.502;10.722;2022-09-04T03:26:15;4.23;;;2.73;;
14251;SDS011;7210;51.502;10.722;2022-09-04T03:28:54;3.23;;;2.67;;
14251;SDS011;7210;51.502;10.722;2022-09-04T03:31:32;6.17;;;3.30;;
14251;SDS011;7210;51.502;10.722;2022-09-04T03:34:21;4.83;;;3.20;;
14251;SDS011;7210;51.502;10.722;2022-09-04T03:40:17;5.20;;;3.23;;
14251;SDS011;7210;51.502;10.722;2022-09-04T03:43:08;5.97;;;3.17;;
14251;SDS011;7210;51.502;10.722;2022-09-04T03:46:15;5.20;;;2.97;;
14251;SDS011;7210;51.502;10.722;2022-09-04T03:49:05;4.07;;;3.00;;
14251;SDS011;7210;51.502;10.722;2022-09-04T03:51:47;6.33;;;3.10;;
14251;SDS011;7210;51.502;10.722;2022-09-04T03:54:43;4.00;;;2.87;;
14251;SDS011;7210;51.502;10.722;2022-09-04T03:57:40;4.43;;;3.17;;
14251;SDS011;7210;51.502;10.722;2022-09-04T04:00:33;4.80;;;2.80;;
14251;SDS011;7210;51.502;10.722;2022-09-04T04:03:18;4.47;;;3.17;;
14251;SDS011;7210;51.502;10.722;2022-09-04T04:06:12;6.93;;;2.90;;
14251;SDS011;7210;51.502;10.722;2022-09-04T04:08:58;3.97;;;3.03;;
14251;SDS011;7210;51.502;10.722;2022-09-04T04:12:01;6.80;;;3.67;;
14251;SDS011;7210;51.502;10.722;2022-09-04T04:14:58;5.90;;;3.53;;
14251;SDS011;7210;51.502;10.722;2022-09-04T04:17:53;7.13;;;3.33;;
14251;SDS011;7210;51.502;10.722;2022-09-04T04:20:47;3.43;;;3.13;;
14251;SDS011;7210;51.502;10.722;2022-09-04T04:26:50;4.33;;;3.20;;
14251;SDS011;7210;51.502;10.722;2022-09-04T04:29:46;45.37;;;5.40;;
14251;SDS011;7210;51.502;10.722;2022-09-04T04:32:36;10.83;;;4.57;;
14251;SDS011;7210;51.502;10.722;2022-09-04T04:35:37;5.30;;;3.40;;
14251;SDS011;7210;51.502;10.722;2022-09-04T04:38:16;4.07;;;2.97;;
14251;SDS011;7210;51.502;10.722;2022-09-04T04:41:06;7.43;;;3.27;;
14251;SDS011;7210;51.502;10.722;2022-09-04T04:44:22;5.30;;;2.70;;
14251;SDS011;7210;51.502;10.722;2022-09-04T04:47:18;4.03;;;3.10;;
14251;SDS011;7210;51.502;10.722;2022-09-04T04:50:04;7.23;;;3.23;;
14251;SDS011;7210;51.502;10.722;2022-09-04T04:52:52;5.80;;;3.20;;
14251;SDS011;7210;51.502;10.722;2022-09-04T04:55:34;11.07;;;3.37;;
14251;SDS011;7210;51.502;10.722;2022-09-04T04:58:25;7.73;;;3.43;;
14251;SDS011;7210;51.502;10.722;2022-09-04T05:01:11;10.33;;;4.47;;
14251;SDS011;7210;51.502;10.722;2022-09-04T05:03:56;4.77;;;3.40;;
14251;SDS011;7210;51.502;10.722;2022-09-04T05:06:38;3.80;;;3.30;;
14251;SDS011;7210;51.502;10.722;2022-09-04T05:09:18;4.63;;;3.13;;
14251;SDS011;7210;51.502;10.722;2022-09-04T05:12:02;4.07;;;3.37;;
14251;SDS011;7210;51.502;10.722;2022-09-04T05:14:40;4.33;;;3.37;;
14251;SDS011;7210;51.502;10.722;2022-09-04T05:17:23;17.43;;;4.70;;
14251;SDS011;7210;51.502;10.722;2022-09-04T05:20:13;10.67;;;4.30;;
14251;SDS011;7210;51.502;10.722;2022-09-04T05:22:55;4.17;;;3.43;;
14251;SDS011;7210;51.502;10.722;2022-09-04T05:25:41;4.50;;;3.40;;
14251;SDS011;7210;51.502;10.722;2022-09-04T05:28:21;4.43;;;3.60;;
14251;SDS011;7210;51.502;10.722;2022-09-04T05:31:06;6.50;;;3.83;;
14251;SDS011;7210;51.502;10.722;2022-09-04T05:33:50;5.70;;;3.40;;
14251;SDS011;7210;51.502;10.722;2022-09-04T05:36:36;5.30;;;3.50;;
14251;SDS011;7210;51.502;10.722;2022-09-04T05:39:17;4.07;;;3.67;;
14251;SDS011;7210;51.502;10.722;2022-09-04T05:42:05;5.57;;;3.70;;
14251;SDS011;7210;51.502;10.722;2022-09-04T05:45:11;3.47;;;3.17;;
14251;SDS011;7210;51.502;10.722;2022-09-04T05:48:09;6.13;;;3.70;;
14251;SDS011;7210;51.502;10.722;2022-09-04T05:50:52;4.13;;;3.67;;
14251;SDS011;7210;51.502;10.722;2022-09-04T05:56:58;6.33;;;3.27;;
14251;SDS011;7210;51.502;10.722;2022-09-04T06:00:05;5.73;;;3.20;;
14251;SDS011;7210;51.502;10.722;2022-09-04T06:02:46;4.13;;;3.37;;
14251;SDS011;7210;51.502;10.722;2022-09-04T06:05:59;6.50;;;3.53;;
14251;SDS011;7210;51.502;10.722;2022-09-04T06:11:58;5.43;;;3.67;;
14251;SDS011;7210;51.502;10.722;2022-09-04T06:21:55;5.87;;;3.50;;
14251;SDS011;7210;51.502;10.722;2022-09-04T06:25:01;4.33;;;3.37;;
14251;SDS011;7210;51.502;10.722;2022-09-04T06:28:01;4.97;;;3.63;;
14251;SDS011;7210;51.502;10.722;2022-09-04T06:31:31;4.03;;;3.10;;
14251;SDS011;7210;51.502;10.722;2022-09-04T06:34:37;4.73;;;3.20;;
14251;SDS011;7210;51.502;10.722;2022-09-04T06:37:40;4.97;;;3.03;;
14251;SDS011;7210;51.502;10.722;2022-09-04T06:40:29;4.47;;;3.20;;
14251;SDS011;7210;51.502;10.722;2022-09-04T06:43:14;5.20;;;3.10;;
14251;SDS011;7210;51.502;10.722;2022-09-04T06:45:55;3.60;;;3.20;;
14251;SDS011;7210;51.502;10.722;2022-09-04T06:48:40;3.70;;;3.40;;
14251;SDS011;7210;51.502;10.722;2022-09-04T06:51:28;4.77;;;3.80;;
14251;SDS011;7210;51.502;10.722;2022-09-04T06:54:17;4.77;;;3.70;;
14251;SDS011;7210;51.502;10.722;2022-09-04T06:57:08;5.50;;;3.80;;
14251;SDS011;7210;51.502;10.722;2022-09-04T07:00:03;4.60;;;3.93;;
14251;SDS011;7210;51.502;10.722;2022-09-04T07:02:38;6.70;;;4.07;;
14251;SDS011;7210;51.502;10.722;2022-09-04T07:05:49;6.03;;;4.43;;
14251;SDS011;7210;51.502;10.722;2022-09-04T07:08:33;5.50;;;4.73;;
14251;SDS011;7210;51.502;10.722;2022-09-04T07:11:26;6.43;;;4.10;;
14251;SDS011;7210;51.502;10.722;2022-09-04T07:17:39;6.33;;;4.83;;
14251;SDS011;7210;51.502;10.722;2022-09-04T07:20:30;5.20;;;4.67;;
14251;SDS011;7210;51.502;10.722;2022-09-04T07:23:17;7.37;;;4.33;;
14251;SDS011;7210;51.502;10.722;2022-09-04T07:25:59;8.60;;;5.00;;
14251;SDS011;7210;51.502;10.722;2022-09-04T07:28:45;6.60;;;5.27;;
14251;SDS011;7210;51.502;10.722;2022-09-04T07:31:33;5.97;;;5.20;;
14251;SDS011;7210;51.502;10.722;2022-09-04T07:34:10;7.13;;;5.57;;
14251;SDS011;7210;51.502;10.722;2022-09-04T07:36:48;7.67;;;5.77;;
14251;SDS011;7210;51.502;10.722;2022-09-04T07:39:28;8.23;;;5.33;;
14251;SDS011;7210;51.502;10.722;2022-09-04T07:42:07;8.07;;;5.83;;
14251;SDS011;7210;51.502;10.722;2022-09-04T07:44:46;14.17;;;5.70;;
14251;SDS011;7210;51.502;10.722;2022-09-04T07:47:26;6.07;;;5.47;;
14251;SDS011;7210;51.502;10.722;2022-09-04T07:50:02;8.93;;;6.27;;
14251;SDS011;7210;51.502;10.722;2022-09-04T07:52:43;8.97;;;5.57;;
14251;SDS011;7210;51.502;10.722;2022-09-04T07:55:40;6.50;;;5.90;;
14251;SDS011;7210;51.502;10.722;2022-09-04T07:58:16;7.07;;;6.37;;
14251;SDS011;7210;51.502;10.722;2022-09-04T08:04:39;6.80;;;5.77;;
14251;SDS011;7210;51.502;10.722;2022-09-04T08:07:37;7.27;;;5.87;;
14251;SDS011;7210;51.502;10.722;2022-09-04T08:10:27;6.67;;;5.80;;
14251;SDS011;7210;51.502;10.722;2022-09-04T08:13:05;10.90;;;5.80;;
14251;SDS011;7210;51.502;10.722;2022-09-04T08:15:57;9.73;;;5.30;;
14251;SDS011;7210;51.502;10.722;2022-09-04T08:18:37;6.67;;;4.90;;
14251;SDS011;7210;51.502;10.722;2022-09-04T08:21:26;6.67;;;4.70;;
14251;SDS011;7210;51.502;10.722;2022-09-04T08:24:04;7.23;;;5.40;;
14251;SDS011;7210;51.502;10.722;2022-09-04T08:27:15;7.30;;;5.37;;
14251;SDS011;7210;51.502;10.722;2022-09-04T08:30:03;7.40;;;5.23;;
14251;SDS011;7210;51.502;10.722;2022-09-04T08:32:40;6.87;;;5.03;;
14251;SDS011;7210;51.502;10.722;2022-09-04T08:35:44;5.63;;;5.13;;
14251;SDS011;7210;51.502;10.722;2022-09-04T08:38:28;7.90;;;5.03;;
14251;SDS011;7210;51.502;10.722;2022-09-04T08:41:26;6.20;;;4.70;;
14251;SDS011;7210;51.502;10.722;2022-09-04T09:01:14;7.10;;;4.30;;
14251;SDS011;7210;51.502;10.722;2022-09-04T09:04:29;3.97;;;3.53;;
14251;SDS011;7210;51.502;10.722;2022-09-04T09:11:10;4.70;;;4.17;;
14251;SDS011;7210;51.502;10.722;2022-09-04T09:14:27;4.20;;;3.80;;
14251;SDS011;7210;51.502;10.722;2022-09-04T09:17:50;6.23;;;4.10;;
14251;SDS011;7210;51.502;10.722;2022-09-04T09:20:28;5.23;;;4.50;;
14251;SDS011;7210;51.502;10.722;2022-09-04T09:23:16;4.43;;;3.80;;
14251;SDS011;7210;51.502;10.722;2022-09-04T09:25:50;4.93;;;3.73;;
14251;SDS011;7210;51.502;10.722;2022-09-04T09:32:00;3.57;;;3.27;;
14251;SDS011;7210;51.502;10.722;2022-09-04T09:38:43;4.32;;;3.38;;
14251;SDS011;7210;51.502;10.722;2022-09-04T09:41:55;4.93;;;3.30;;
14251;SDS011;7210;51.502;10.722;2022-09-04T09:48:28;3.03;;;2.73;;
14251;SDS011;7210;51.502;10.722;2022-09-04T09:55:05;5.63;;;2.60;;
14251;SDS011;7210;51.502;10.722;2022-09-04T10:01:41;3.13;;;2.20;;
14251;SDS011;7210;51.502;10.722;2022-09-04T10:04:52;2.80;;;2.33;;
14251;SDS011;7210;51.502;10.722;2022-09-04T10:08:20;3.90;;;2.60;;
14251;SDS011;7210;51.502;10.722;2022-09-04T10:11:35;3.07;;;2.43;;
14251;SDS011;7210;51.502;10.722;2022-09-04T10:14:35;2.73;;;2.53;;
14251;SDS011;7210;51.502;10.722;2022-09-04T10:21:07;2.80;;;2.37;;
14251;SDS011;7210;51.502;10.722;2022-09-04T10:24:29;2.60;;;2.10;;
14251;SDS011;7210;51.502;10.722;2022-09-04T10:27:30;2.37;;;2.17;;
14251;SDS011;7210;51.502;10.722;2022-09-04T10:33:59;2.73;;;2.50;;
14251;SDS011;7210;51.502;10.722;2022-09-04T10:37:11;5.73;;;2.70;;
14251;SDS011;7210;51.502;10.722;2022-09-04T10:40:19;6.03;;;2.80;;
14251;SDS011;7210;51.502;10.722;2022-09-04T10:46:17;3.20;;;2.90;;
14251;SDS011;7210;51.502;10.722;2022-09-04T10:49:14;3.30;;;2.60;;
14251;SDS011;7210;51.502;10.722;2022-09-04T10:52:22;3.80;;;2.80;;
14251;SDS011;7210;51.502;10.722;2022-09-04T11:05:30;10.13;;;3.15;;
14251;SDS011;7210;51.502;10.722;2022-09-04T11:11:42;7.22;;;5.03;;
14251;SDS011;7210;51.502;10.722;2022-09-04T11:14:46;4.55;;;2.47;;
14251;SDS011;7210;51.502;10.722;2022-09-04T11:21:21;3.90;;;2.60;;
14251;SDS011;7210;51.502;10.722;2022-09-04T11:28:05;4.05;;;2.17;;
14251;SDS011;7210;51.502;10.722;2022-09-04T11:31:16;3.22;;;2.40;;
14251;SDS011;7210;51.502;10.722;2022-09-04T11:34:18;2.35;;;2.15;;
14251;SDS011;7210;51.502;10.722;2022-09-04T11:37:43;3.83;;;2.67;;
14251;SDS011;7210;51.502;10.722;2022-09-04T11:40:48;18.35;;;3.05;;
14251;SDS011;7210;51.502;10.722;2022-09-04T11:47:27;3.90;;;2.40;;
14251;SDS011;7210;51.502;10.722;2022-09-04T11:50:33;5.45;;;2.30;;
14251;SDS011;7210;51.502;10.722;2022-09-04T11:53:31;7.75;;;2.22;;
14251;SDS011;7210;51.502;10.722;2022-09-04T11:59:42;3.47;;;2.30;;
14251;SDS011;7210;51.502;10.722;2022-09-04T12:02:48;2.38;;;2.10;;
14251;SDS011;7210;51.502;10.722;2022-09-04T12:05:58;9.38;;;2.58;;
14251;SDS011;7210;51.502;10.722;2022-09-04T12:08:43;4.90;;;2.40;;
14251;SDS011;7210;51.502;10.722;2022-09-04T12:12:04;3.13;;;2.08;;
14251;SDS011;7210;51.502;10.722;2022-09-04T12:15:02;3.63;;;2.40;;
14251;SDS011;7210;51.502;10.722;2022-09-04T12:18:26;3.03;;;2.20;;
14251;SDS011;7210;51.502;10.722;2022-09-04T12:21:34;2.65;;;2.45;;
14251;SDS011;7210;51.502;10.722;2022-09-04T12:24:50;4.13;;;2.75;;
14251;SDS011;7210;51.502;10.722;2022-09-04T12:28:02;5.10;;;2.30;;
14251;SDS011;7210;51.502;10.722;2022-09-04T12:31:14;6.78;;;2.30;;
14251;SDS011;7210;51.502;10.722;2022-09-04T12:34:09;2.55;;;2.35;;
14251;SDS011;7210;51.502;10.722;2022-09-04T12:37:12;5.32;;;2.65;;
14251;SDS011;7210;51.502;10.722;2022-09-04T12:43:12;2.70;;;2.50;;
14251;SDS011;7210;51.502;10.722;2022-09-04T12:45:58;5.85;;;2.40;;
14251;SDS011;7210;51.502;10.722;2022-09-04T12:49:06;2.80;;;2.40;;
14251;SDS011;7210;51.502;10.722;2022-09-04T12:51:58;3.53;;;2.50;;
14251;SDS011;7210;51.502;10.722;2022-09-04T12:54:45;12.93;;;3.13;;
14251;SDS011;7210;51.502;10.722;2022-09-04T12:57:30;5.60;;;2.70;;
14251;SDS011;7210;51.502;10.722;2022-09-04T13:00:13;3.10;;;2.55;;
14251;SDS011;7210;51.502;10.722;2022-09-04T13:02:48;2.88;;;2.67;;
14251;SDS011;7210;51.502;10.722;2022-09-04T13:05:39;3.75;;;2.58;;
14251;SDS011;7210;51.502;10.722;2022-09-04T13:08:25;4.47;;;2.70;;
14251;SDS011;7210;51.502;10.722;2022-09-04T13:11:15;4.32;;;2.35;;
14251;SDS011;7210;51.502;10.722;2022-09-04T13:14:01;3.35;;;2.70;;
14251;SDS011;7210;51.502;10.722;2022-09-04T13:16:51;3.22;;;2.35;;
14251;SDS011;7210;51.502;10.722;2022-09-04T13:19:34;3.55;;;2.50;;
14251;SDS011;7210;51.502;10.722;2022-09-04T13:22:18;5.13;;;2.42;;
14251;SDS011;7210;51.502;10.722;2022-09-04T13:25:00;4.03;;;2.58;;
14251;SDS011;7210;51.502;10.722;2022-09-04T13:27:48;4.05;;;2.67;;
14251;SDS011;7210;51.502;10.722;2022-09-04T13:30:29;5.15;;;2.38;;
14251;SDS011;7210;51.502;10.722;2022-09-04T13:33:05;2.67;;;2.35;;
14251;SDS011;7210;51.502;10.722;2022-09-04T13:35:58;4.07;;;2.70;;
14251;SDS011;7210;51.502;10.722;2022-09-04T13:38:51;2.47;;;2.28;;
14251;SDS011;7210;51.502;10.722;2022-09-04T13:42:15;2.60;;;2.30;;
14251;SDS011;7210;51.502;10.722;2022-09-04T13:45:25;2.70;;;2.42;;
14251;SDS011;7210;51.502;10.722;2022-09-04T13:48:00;3.85;;;2.42;;
14251;SDS011;7210;51.502;10.722;2022-09-04T13:50:36;4.93;;;2.20;;
14251;SDS011;7210;51.502;10.722;2022-09-04T13:53:16;2.40;;;2.20;;
14251;SDS011;7210;51.502;10.722;2022-09-04T13:55:57;2.35;;;2.15;;
14251;SDS011;7210;51.502;10.722;2022-09-04T13:58:36;2.67;;;2.30;;
14251;SDS011;7210;51.502;10.722;2022-09-04T14:01:10;2.20;;;2.00;;
14251;SDS011;7210;51.502;10.722;2022-09-04T14:03:47;2.17;;;1.98;;
14251;SDS011;7210;51.502;10.722;2022-09-04T14:06:19;3.42;;;2.20;;
14251;SDS011;7210;51.502;10.722;2022-09-04T14:08:50;2.63;;;2.25;;
14251;SDS011;7210;51.502;10.722;2022-09-04T14:14:30;4.65;;;2.63;;
14251;SDS011;7210;51.502;10.722;2022-09-04T14:17:33;3.70;;;2.38;;
14251;SDS011;7210;51.502;10.722;2022-09-04T14:20:14;2.85;;;2.50;;
14251;SDS011;7210;51.502;10.722;2022-09-04T14:22:47;5.00;;;2.17;;
14251;SDS011;7210;51.502;10.722;2022-09-04T14:25:28;2.30;;;2.10;;
14251;SDS011;7210;51.502;10.722;2022-09-04T14:28:09;4.53;;;2.28;;
14251;SDS011;7210;51.502;10.722;2022-09-04T14:30:50;2.60;;;2.08;;
14251;SDS011;7210;51.502;10.722;2022-09-04T14:33:32;2.40;;;2.13;;
14251;SDS011;7210;51.502;10.722;2022-09-04T14:36:15;2.67;;;2.35;;
14251;SDS011;7210;51.502;10.722;2022-09-04T14:39:04;4.68;;;2.20;;
14251;SDS011;7210;51.502;10.722;2022-09-04T14:41:49;2.90;;;2.10;;
14251;SDS011;7210;51.502;10.722;2022-09-04T14:44:41;2.40;;;2.20;;
14251;SDS011;7210;51.502;10.722;2022-09-04T14:47:39;2.58;;;2.00;;
14251;SDS011;7210;51.502;10.722;2022-09-04T14:50:16;2.30;;;2.10;;
14251;SDS011;7210;51.502;10.722;2022-09-04T14:52:45;2.50;;;2.30;;
14251;SDS011;7210;51.502;10.722;2022-09-04T14:55:22;3.25;;;2.38;;
14251;SDS011;7210;51.502;10.722;2022-09-04T14:57:53;3.88;;;2.33;;
14251;SDS011;7210;51.502;10.722;2022-09-04T15:00:29;3.72;;;2.17;;
14251;SDS011;7210;51.502;10.722;2022-09-04T15:03:16;2.53;;;2.22;;
14251;SDS011;7210;51.502;10.722;2022-09-04T15:05:51;2.90;;;2.30;;
14251;SDS011;7210;51.502;10.722;2022-09-04T15:08:25;3.05;;;2.10;;
14251;SDS011;7210;51.502;10.722;2022-09-04T15:10:56;3.40;;;2.30;;
14251;SDS011;7210;51.502;10.722;2022-09-04T15:13:33;5.55;;;2.20;;
14251;SDS011;7210;51.502;10.722;2022-09-04T15:16:19;2.25;;;2.05;;
14251;SDS011;7210;51.502;10.722;2022-09-04T15:18:55;2.25;;;2.05;;
14251;SDS011;7210;51.502;10.722;2022-09-04T15:21:41;4.40;;;2.17;;
14251;SDS011;7210;51.502;10.722;2022-09-04T15:24:22;2.50;;;2.03;;
14251;SDS011;7210;51.502;10.722;2022-09-04T15:26:58;4.85;;;2.15;;
14251;SDS011;7210;51.502;10.722;2022-09-04T15:29:38;2.60;;;2.40;;
14251;SDS011;7210;51.502;10.722;2022-09-04T15:32:29;2.40;;;2.20;;
14251;SDS011;7210;51.502;10.722;2022-09-04T15:35:10;2.72;;;2.30;;
14251;SDS011;7210;51.502;10.722;2022-09-04T15:37:42;3.67;;;2.22;;
14251;SDS011;7210;51.502;10.722;2022-09-04T15:40:19;2.30;;;2.10;;
14251;SDS011;7210;51.502;10.722;2022-09-04T15:43:06;3.35;;;2.05;;
14251;SDS011;7210;51.502;10.722;2022-09-04T15:45:40;4.88;;;2.25;;
14251;SDS011;7210;51.502;10.722;2022-09-04T15:48:18;3.13;;;2.15;;
14251;SDS011;7210;51.502;10.722;2022-09-04T15:50:58;4.60;;;2.42;;
14251;SDS011;7210;51.502;10.722;2022-09-04T15:53:39;5.68;;;2.20;;
14251;SDS011;7210;51.502;10.722;2022-09-04T15:56:28;3.30;;;2.15;;
14251;SDS011;7210;51.502;10.722;2022-09-04T15:59:03;2.53;;;1.92;;
14251;SDS011;7210;51.502;10.722;2022-09-04T16:01:45;2.10;;;1.90;;
14251;SDS011;7210;51.502;10.722;2022-09-04T16:04:24;2.20;;;2.00;;
14251;SDS011;7210;51.502;10.722;2022-09-04T16:07:13;3.25;;;2.05;;
14251;SDS011;7210;51.502;10.722;2022-09-04T16:09:55;2.72;;;2.30;;
14251;SDS011;7210;51.502;10.722;2022-09-04T16:12:35;3.20;;;2.25;;
14251;SDS011;7210;51.502;10.722;2022-09-04T16:15:16;3.28;;;2.10;;
14251;SDS011;7210;51.502;10.722;2022-09-04T16:17:58;3.30;;;2.10;;
14251;SDS011;7210;51.502;10.722;2022-09-04T16:20:38;1.90;;;1.70;;
14251;SDS011;7210;51.502;10.722;2022-09-04T16:23:15;4.93;;;2.55;;
14251;SDS011;7210;51.502;10.722;2022-09-04T16:25:54;1.80;;;1.67;;
14251;SDS011;7210;51.502;10.722;2022-09-04T16:28:24;2.88;;;1.85;;
14251;SDS011;7210;51.502;10.722;2022-09-04T16:30:56;2.42;;;2.22;;
14251;SDS011;7210;51.502;10.722;2022-09-04T16:33:27;4.18;;;2.50;;
14251;SDS011;7210;51.502;10.722;2022-09-04T16:36:02;2.03;;;1.90;;
14251;SDS011;7210;51.502;10.722;2022-09-04T16:38:41;2.47;;;2.28;;
14251;SDS011;7210;51.502;10.722;2022-09-04T16:41:16;3.50;;;2.03;;
14251;SDS011;7210;51.502;10.722;2022-09-04T16:44:04;2.80;;;2.22;;
14251;SDS011;7210;51.502;10.722;2022-09-04T16:46:43;3.80;;;1.90;;
14251;SDS011;7210;51.502;10.722;2022-09-04T16:49:28;2.47;;;2.08;;
14251;SDS011;7210;51.502;10.722;2022-09-04T16:52:27;3.47;;;2.20;;
14251;SDS011;7210;51.502;10.722;2022-09-04T16:55:26;7.78;;;2.30;;
14251;SDS011;7210;51.502;10.722;2022-09-04T16:58:10;3.55;;;2.40;;
14251;SDS011;7210;51.502;10.722;2022-09-04T17:00:55;2.63;;;2.40;;
14251;SDS011;7210;51.502;10.722;2022-09-04T17:03:39;7.07;;;2.70;;
14251;SDS011;7210;51.502;10.722;2022-09-04T17:06:20;3.03;;;2.20;;
14251;SDS011;7210;51.502;10.722;2022-09-04T17:08:58;3.50;;;2.25;;
14251;SDS011;7210;51.502;10.722;2022-09-04T17:11:39;3.58;;;2.40;;
14251;SDS011;7210;51.502;10.722;2022-09-04T17:14:17;3.15;;;2.00;;
14251;SDS011;7210;51.502;10.722;2022-09-04T17:16:52;3.67;;;2.42;;
14251;SDS011;7210;51.502;10.722;2022-09-04T17:19:22;2.63;;;2.30;;
14251;SDS011;7210;51.502;10.722;2022-09-04T17:21:57;3.37;;;2.70;;
14251;SDS011;7210;51.502;10.722;2022-09-04T17:25:03;4.70;;;3.20;;
14251;SDS011;7210;51.502;10.722;2022-09-04T17:27:42;5.63;;;2.90;;
14251;SDS011;7210;51.502;10.722;2022-09-04T17:30:22;4.37;;;3.27;;
14251;SDS011;7210;51.502;10.722;2022-09-04T17:32:58;4.07;;;3.47;;
14251;SDS011;7210;51.502;10.722;2022-09-04T17:35:34;3.40;;;2.90;;
14251;SDS011;7210;51.502;10.722;2022-09-04T17:38:14;6.53;;;3.20;;
14251;SDS011;7210;51.502;10.722;2022-09-04T17:41:00;5.90;;;3.40;;
14251;SDS011;7210;51.502;10.722;2022-09-04T17:43:44;4.43;;;3.37;;
14251;SDS011;7210;51.502;10.722;2022-09-04T17:46:30;5.97;;;3.27;;
14251;SDS011;7210;51.502;10.722;2022-09-04T17:49:06;6.23;;;3.37;;
14251;SDS011;7210;51.502;10.722;2022-09-04T17:51:45;4.80;;;3.60;;
14251;SDS011;7210;51.502;10.722;2022-09-04T17:54:16;5.17;;;3.67;;
14251;SDS011;7210;51.502;10.722;2022-09-04T17:56:46;5.53;;;3.77;;
14251;SDS011;7210;51.502;10.722;2022-09-04T17:59:22;5.73;;;3.47;;
14251;SDS011;7210;51.502;10.722;2022-09-04T18:02:00;4.10;;;3.70;;
14251;SDS011;7210;51.502;10.722;2022-09-04T18:04:37;4.30;;;3.70;;
14251;SDS011;7210;51.502;10.722;2022-09-04T18:07:13;4.70;;;3.87;;
14251;SDS011;7210;51.502;10.722;2022-09-04T18:09:57;5.33;;;3.83;;
14251;SDS011;7210;51.502;10.722;2022-09-04T18:12:38;5.00;;;3.60;;
14251;SDS011;7210;51.502;10.722;2022-09-04T18:15:16;6.37;;;3.33;;
14251;SDS011;7210;51.502;10.722;2022-09-04T18:17:48;6.67;;;4.00;;
14251;SDS011;7210;51.502;10.722;2022-09-04T18:20:27;6.40;;;4.03;;
14251;SDS011;7210;51.502;10.722;2022-09-04T18:23:14;5.67;;;3.57;;
14251;SDS011;7210;51.502;10.722;2022-09-04T18:26:06;3.40;;;3.07;;
14251;SDS011;7210;51.502;10.722;2022-09-04T18:28:45;7.70;;;3.40;;
14251;SDS011;7210;51.502;10.722;2022-09-04T18:31:23;4.47;;;3.50;;
14251;SDS011;7210;51.502;10.722;2022-09-04T18:34:00;3.33;;;3.03;;
14251;SDS011;7210;51.502;10.722;2022-09-04T18:36:41;3.87;;;3.40;;
14251;SDS011;7210;51.502;10.722;2022-09-04T18:39:20;4.50;;;3.20;;
14251;SDS011;7210;51.502;10.722;2022-09-04T18:42:14;5.90;;;3.57;;